createdAt,value
2022-11-20T00:00:00.345Z,76
2022-11-20T00:05:00.312Z,76
2022-11-20T00:10:00.181Z,76
2022-11-20T00:15:00.278Z,76
2022-11-20T00:20:00.253Z,76
2022-11-20T00:25:00.235Z,77
2022-11-20T00:30:00.281Z,77
2022-11-20T00:35:00.221Z,77
2022-11-20T00:40:00.304Z,77
2022-11-20T00:45:00.155Z,77
2022-11-20T00:50:00.203Z,77
2022-11-20T00:55:00.253Z,77
2022-11-20T01:00:00.327Z,77
2022-11-20T01:05:00.240Z,77
2022-11-20T01:10:00.242Z,77
2022-11-20T01:15:00.247Z,77
2022-11-20T01:20:00.314Z,78
2022-11-20T01:25:00.264Z,78
2022-11-20T01:30:01.452Z,78
2022-11-20T01:35:00.202Z,78
2022-11-20T01:40:00.196Z,78
2022-11-20T01:45:00.235Z,78
2022-11-20T01:50:00.239Z,78
2022-11-20T01:55:00.236Z,78
2022-11-20T02:00:00.311Z,79
2022-11-20T02:05:00.240Z,79
2022-11-20T02:10:00.237Z,79
2022-11-20T02:15:00.227Z,79
2022-11-20T02:20:00.291Z,79
2022-11-20T02:25:00.176Z,79
2022-11-20T02:30:00.281Z,79
2022-11-20T02:35:00.213Z,79
2022-11-20T02:40:00.191Z,79
2022-11-20T02:45:00.261Z,79
2022-11-20T02:50:00.254Z,79
2022-11-20T02:55:00.154Z,79
2022-11-20T03:00:00.379Z,79
2022-11-20T03:05:00.388Z,79
2022-11-20T03:10:00.214Z,79
2022-11-20T03:15:00.240Z,79
2022-11-20T03:20:00.237Z,79
2022-11-20T03:25:05.200Z,79
2022-11-20T03:30:00.222Z,79
2022-11-20T03:35:00.176Z,79
2022-11-20T03:40:00.287Z,79
2022-11-20T03:45:00.247Z,79
2022-11-20T03:50:00.241Z,79
2022-11-20T03:55:00.213Z,79
2022-11-20T04:00:00.330Z,79
2022-11-20T04:05:00.228Z,80
2022-11-20T04:10:00.211Z,80
2022-11-20T04:15:00.229Z,80
2022-11-20T04:20:00.324Z,80
2022-11-20T04:25:00.383Z,80
2022-11-20T04:30:00.259Z,80
2022-11-20T04:35:00.217Z,80
2022-11-20T04:40:00.289Z,80
2022-11-20T04:45:00.259Z,79
2022-11-20T04:50:00.263Z,79
2022-11-20T04:55:00.234Z,79
2022-11-20T05:00:00.335Z,79
2022-11-20T05:05:00.252Z,79
2022-11-20T05:10:00.159Z,79
2022-11-20T05:15:00.231Z,79
2022-11-20T05:20:00.297Z,79
2022-11-20T05:25:00.189Z,79
2022-11-20T05:30:00.209Z,79
2022-11-20T05:35:00.271Z,79
2022-11-20T05:40:00.285Z,79
2022-11-20T05:45:00.266Z,79
2022-11-20T05:50:00.239Z,80
2022-11-20T05:55:00.214Z,79
2022-11-20T06:00:00.310Z,80
2022-11-20T06:05:00.224Z,80
2022-11-20T06:10:00.227Z,80
2022-11-20T06:15:00.202Z,80
2022-11-20T06:20:00.212Z,80
2022-11-20T06:25:00.259Z,80
2022-11-20T06:30:00.257Z,80
2022-11-20T06:35:00.249Z,80
2022-11-20T06:40:00.293Z,80
2022-11-20T06:45:00.192Z,80
2022-11-20T06:50:00.222Z,80
2022-11-20T06:55:00.197Z,80
2022-11-20T07:00:00.308Z,81
2022-11-20T07:05:00.224Z,81
2022-11-20T07:10:00.217Z,81
2022-11-20T07:15:00.237Z,81
2022-11-20T07:20:00.252Z,81
2022-11-20T07:25:00.226Z,81
2022-11-20T07:30:00.250Z,81
2022-11-20T07:35:00.242Z,81
2022-11-20T07:40:00.278Z,81
2022-11-20T07:45:00.267Z,81
2022-11-20T07:50:00.170Z,81
2022-11-20T07:55:00.250Z,81
2022-11-20T08:00:00.354Z,81
2022-11-20T08:05:00.238Z,81
2022-11-20T08:10:00.158Z,81
2022-11-20T08:15:00.218Z,81
2022-11-20T08:20:00.296Z,81
2022-11-20T08:25:00.240Z,81
2022-11-20T08:30:00.277Z,81
2022-11-20T08:35:00.205Z,81
2022-11-20T08:40:00.257Z,81
2022-11-20T08:45:00.235Z,81
2022-11-20T08:50:00.214Z,81
2022-11-20T08:55:00.199Z,82
2022-11-20T09:00:06.925Z,82
2022-11-20T09:05:00.244Z,82
2022-11-20T09:10:22.746Z,82
2022-11-20T09:15:00.231Z,82
2022-11-20T09:20:00.251Z,82
2022-11-20T09:25:00.268Z,81
2022-11-20T09:30:00.173Z,81
2022-11-20T09:40:00.247Z,81
2022-11-20T09:45:00.207Z,82
2022-11-20T09:50:00.260Z,82
2022-11-20T09:55:00.224Z,82
2022-11-20T10:00:00.360Z,82
2022-11-20T10:05:00.225Z,82
2022-11-20T10:10:00.213Z,82
2022-11-20T10:15:00.163Z,82
2022-11-20T10:20:00.323Z,82
2022-11-20T10:25:00.254Z,82
2022-11-20T10:30:00.228Z,82
2022-11-20T10:35:00.218Z,82
2022-11-20T10:40:00.326Z,82
2022-11-20T10:45:04.173Z,82
2022-11-20T10:50:00.244Z,82
2022-11-20T10:55:00.236Z,82
2022-11-20T11:00:00.283Z,82
2022-11-20T11:05:00.241Z,82
2022-11-20T11:10:00.217Z,82
2022-11-20T11:15:00.152Z,82
2022-11-20T11:20:00.200Z,82
2022-11-20T11:25:00.227Z,82
2022-11-20T11:30:00.277Z,82
2022-11-20T11:35:00.267Z,82
2022-11-20T11:40:22.930Z,81
2022-11-20T11:45:00.249Z,81
2022-11-20T11:50:00.208Z,81
2022-11-20T11:55:00.275Z,81
2022-11-20T12:00:00.332Z,81
2022-11-20T12:05:00.229Z,81
2022-11-20T12:10:00.237Z,81
2022-11-20T12:15:00.157Z,80
2022-11-20T12:20:00.322Z,80
2022-11-20T12:25:00.255Z,80
2022-11-20T12:30:00.282Z,80
2022-11-20T12:35:00.227Z,80
2022-11-20T12:40:00.310Z,79
2022-11-20T12:45:00.258Z,79
2022-11-20T12:50:00.225Z,79
2022-11-20T12:55:00.237Z,79
2022-11-20T13:00:00.223Z,78
2022-11-20T13:05:00.209Z,78
2022-11-20T13:10:00.204Z,78
2022-11-20T13:15:00.275Z,77
2022-11-20T13:20:00.331Z,77
2022-11-20T13:25:00.268Z,77
2022-11-20T13:30:00.259Z,77
2022-11-20T13:35:00.233Z,77
2022-11-20T13:40:00.313Z,76
2022-11-20T13:45:00.228Z,76
2022-11-20T13:50:00.182Z,77
2022-11-20T13:55:00.216Z,77
2022-11-20T14:00:00.441Z,77
2022-11-20T14:05:00.280Z,77
2022-11-20T14:10:00.241Z,77
2022-11-20T14:15:00.227Z,77
2022-11-20T14:20:00.303Z,77
2022-11-20T14:25:00.227Z,77
2022-11-20T14:30:00.292Z,78
2022-11-20T14:35:00.233Z,78
2022-11-20T14:40:00.236Z,78
2022-11-20T14:45:00.192Z,78
2022-11-20T14:50:00.238Z,78
2022-11-20T14:55:00.294Z,78
2022-11-20T15:00:00.412Z,78
2022-11-20T15:05:00.403Z,78
2022-11-20T15:10:00.236Z,78
2022-11-20T15:15:00.268Z,78
2022-11-20T15:20:00.401Z,79
2022-11-20T15:25:00.166Z,79
2022-11-20T15:30:00.354Z,79
2022-11-20T15:35:00.155Z,79
2022-11-20T15:40:00.198Z,79
2022-11-20T15:45:00.197Z,79
2022-11-20T15:50:00.259Z,80
2022-11-20T15:55:00.230Z,80
2022-11-20T16:00:00.298Z,80
2022-11-20T16:05:00.241Z,80
2022-11-20T16:10:00.199Z,80
2022-11-20T16:15:00.293Z,80
2022-11-20T16:20:00.266Z,80
2022-11-20T16:25:00.220Z,80
2022-11-20T16:30:00.180Z,80
2022-11-20T16:35:00.207Z,81
2022-11-20T16:40:00.253Z,81
2022-11-20T16:45:00.239Z,81
2022-11-20T16:50:00.254Z,81
2022-11-20T16:55:00.173Z,82
2022-11-20T17:00:02.507Z,82
2022-11-20T17:05:00.190Z,82
2022-11-20T17:10:00.171Z,82
2022-11-20T17:15:00.217Z,82
2022-11-20T17:20:00.261Z,82
2022-11-20T17:25:00.261Z,82
2022-11-20T17:30:00.252Z,82
2022-11-20T17:35:00.231Z,83
2022-11-20T17:40:00.275Z,83
2022-11-20T17:45:00.238Z,83
2022-11-20T17:50:00.223Z,83
2022-11-20T17:55:00.230Z,84
2022-11-20T18:00:00.330Z,83
2022-11-20T18:05:00.156Z,83
2022-11-20T18:10:00.172Z,84
2022-11-20T18:15:00.271Z,84
2022-11-20T18:20:27.256Z,84
2022-11-20T18:25:00.235Z,84
2022-11-20T18:30:00.275Z,84
2022-11-20T18:35:00.162Z,84
2022-11-20T18:40:00.251Z,84
2022-11-20T18:45:00.180Z,84
2022-11-20T18:50:00.200Z,85
2022-11-20T18:55:00.244Z,85
2022-11-20T19:00:05.075Z,85
2022-11-20T19:05:00.243Z,86
2022-11-20T19:10:03.627Z,86
2022-11-20T19:15:00.250Z,86
2022-11-20T19:20:00.277Z,86
2022-11-20T19:25:00.234Z,86
2022-11-20T19:30:00.279Z,86
2022-11-20T19:35:00.249Z,85
2022-11-20T19:40:00.280Z,85
2022-11-20T19:45:00.203Z,86
2022-11-20T19:50:00.239Z,86
2022-11-20T19:55:00.165Z,87
2022-11-20T20:00:00.313Z,87
2022-11-20T20:05:00.214Z,87
2022-11-20T20:10:00.199Z,87
2022-11-20T20:15:00.233Z,87
2022-11-20T20:20:00.269Z,87
2022-11-20T20:25:00.261Z,87
2022-11-20T20:30:00.232Z,87
2022-11-20T20:35:00.206Z,88
2022-11-20T20:40:00.264Z,87
2022-11-20T20:45:00.220Z,87
2022-11-20T20:50:00.272Z,87
2022-11-20T20:55:00.304Z,87
2022-11-20T21:00:00.362Z,87
2022-11-20T21:05:00.235Z,87
2022-11-20T21:10:00.263Z,87
2022-11-20T21:15:00.218Z,87
2022-11-20T21:20:00.325Z,87
2022-11-20T21:25:00.245Z,87
2022-11-20T21:30:00.245Z,87
2022-11-20T21:35:00.272Z,87
2022-11-20T21:40:00.319Z,86
2022-11-20T21:45:00.220Z,86
2022-11-20T21:50:00.167Z,86
2022-11-20T21:55:00.259Z,86
2022-11-20T22:00:00.356Z,86
2022-11-20T22:05:00.256Z,86
2022-11-20T22:10:00.264Z,86
2022-11-20T22:15:00.206Z,86
2022-11-20T22:20:00.261Z,86
2022-11-20T22:25:00.244Z,86
2022-11-20T22:30:00.290Z,86
2022-11-20T22:35:00.232Z,86
2022-11-20T22:40:00.201Z,86
2022-11-20T22:45:00.268Z,86
2022-11-20T22:50:00.280Z,86
2022-11-20T22:55:00.296Z,86
2022-11-20T23:00:00.398Z,86
2022-11-20T23:05:00.281Z,86
2022-11-20T23:10:00.216Z,86
2022-11-20T23:15:00.238Z,86
2022-11-20T23:20:00.306Z,86
2022-11-20T23:25:00.246Z,86
2022-11-20T23:30:00.283Z,87
2022-11-20T23:35:00.206Z,87
2022-11-20T23:40:00.249Z,87
2022-11-20T23:45:00.266Z,87
2022-11-20T23:50:00.288Z,87
2022-11-20T23:55:00.221Z,87
